Connecticut — WCY4995 — position and weather

sailwx.info

Track history (hours):
 
Tides and Currents Weather Stations Pressure Air Temp Water Temp Dewpoint Dewpoint Depression Visibility Wind Speed Wind Dir Waves Ship Positions

Oceanographic research ship Connecticut (USA)

Detailed information on ship capabilities available from University of Delaware's Ocean Information Center.

Owner: CONNECTICUT, STATE OF, GROTON, CT. More information available from US FCC via Universal Licensing System and Coast Guard Vessel Documentation Center.

Last reported at 2019-Jun-15 05:11 UTC. Time now 2019-Jun-16 15:23 UTC.
Position N 44°18' W 067°58'.

Length 27 m; draft 3 m.

Type: Other ship. MMSI: 367359940.

Date/timePositionNaut miles runAvg speedWind from/ knotsBaromVisibWave heightAir tempDewpointWater temp
2019-Jun-15 05:11N 44°18' W 067°58'1 7.0
2019-Jun-15 05:00N 44°18' W 067°60'4 7.0
2019-Jun-15 04:30N 44°17' W 068°05'4 7.1
2019-Jun-15 04:01N 44°17' W 068°10'3 6.9
2019-Jun-15 03:31N 44°17' W 068°14'3 5.2
2019-Jun-15 03:01N 44°16' W 068°18'1 1.7
2019-Jun-15 02:31N 44°16' W 068°19'0 0.7
2019-Jun-15 02:01N 44°16' W 068°19'3 6.9
2019-Jun-15 01:31N 44°17' W 068°14'4 8.9
2019-Jun-15 01:01N 44°17' W 068°08'5 9.1
2019-Jun-15 00:31N 44°18' W 068°02'5 9.0
2019-Jun-14 23:55N 44°19' W 067°54'4 0.1
2019-Jun-13 04:38N 44°17' W 067°50'4 6.4
2019-Jun-13 04:05N 44°15' W 067°54'0 6.5
2019-Jun-13 04:01N 44°14' W 067°54'4 6.5
2019-Jun-13 03:28N 44°12' W 067°58'3 6.5
2019-Jun-13 03:00N 44°11' W 068°02'3 6.1
2019-Jun-13 02:31N 44°09' W 068°05'3 6.0
2019-Jun-13 02:01N 44°07' W 068°09'0 0.2
2019-Jun-13 01:31N 44°07' W 068°09'0 0.5
2019-Jun-13 01:01N 44°07' W 068°09'0 0.1
2019-Jun-13 00:31N 44°07' W 068°09'0 0.0
2019-Jun-13 00:01N 44°07' W 068°09'0 0.0
2019-Jun-12 23:30N 44°07' W 068°09'0 0.0
2019-Jun-12 23:01N 44°07' W 068°09'0 0.0
2019-Jun-12 22:31N 44°07' W 068°09'4 5.4
2019-Jun-12 21:48N 44°04' W 068°12'4 9.1
2019-Jun-12 21:23N 44°01' W 068°15'4 9.0
2019-Jun-12 20:56N 43°58' W 068°19'222 6.7
2019-Jun-11 11:34N 41°18' W 071°48'1 9.2
2019-Jun-11 11:25N 41°18' W 071°50'4 9.8
2019-Jun-11 11:00N 41°18' W 071°56'5 9.3
2019-Jun-11 10:30N 41°18' W 072°02'2 0.1
2019-Jun-10 12:34N 41°19' W 072°04'0 0.1
2019-Jun-10 12:28N 41°19' W 072°04'0 0.0
2019-Jun-10 11:58N 41°19' W 072°04'0 0.0
2019-Jun-10 11:28N 41°19' W 072°04'0 0.0
2019-Jun-10 10:58N 41°19' W 072°04'0 0.0
2019-Jun-10 10:28N 41°19' W 072°04'0 0.0
2019-Jun-10 09:58N 41°19' W 072°04'0 0.0
2019-Jun-10 09:28N 41°19' W 072°04'0 0.0
2019-Jun-10 08:58N 41°19' W 072°04'0 0.0
2019-Jun-10 08:28N 41°19' W 072°04'0 0.0
2019-Jun-10 07:58N 41°19' W 072°04'0 0.0
2019-Jun-10 07:28N 41°19' W 072°04'0 0.0
2019-Jun-10 06:58N 41°19' W 072°04'0 0.0
2019-Jun-10 06:28N 41°19' W 072°04'0 0.0
2019-Jun-10 05:58N 41°19' W 072°04'0 0.0
2019-Jun-10 05:28N 41°19' W 072°04'0 0.0
2019-Jun-10 04:58N 41°19' W 072°04'0 0.0
2019-Jun-10 04:28N 41°19' W 072°04'0 0.0
2019-Jun-10 03:58N 41°19' W 072°04'0 0.0
2019-Jun-10 03:28N 41°19' W 072°04'0 0.0
2019-Jun-10 02:58N 41°19' W 072°04'0 0.0
2019-Jun-10 02:28N 41°19' W 072°04'0 0.0
2019-Jun-10 01:58N 41°19' W 072°04'0 0.0
2019-Jun-10 01:28N 41°19' W 072°04'0 0.0
2019-Jun-10 00:58N 41°19' W 072°04'0 0.0
2019-Jun-10 00:28N 41°19' W 072°04'0 0.0
2019-Jun-09 23:58N 41°19' W 072°04'0 0.0
2019-Jun-09 23:28N 41°19' W 072°04'0 0.0
2019-Jun-09 22:58N 41°19' W 072°04'0 0.0
2019-Jun-09 22:28N 41°19' W 072°04'0 0.0
2019-Jun-09 21:58N 41°19' W 072°04'0 0.0
2019-Jun-09 21:28N 41°19' W 072°04'0 0.0
2019-Jun-09 20:58N 41°19' W 072°04'0 0.0
2019-Jun-09 20:28N 41°19' W 072°04'0 0.0
2019-Jun-09 19:58N 41°19' W 072°04'0 0.0
2019-Jun-09 19:28N 41°19' W 072°04'0 0.0
2019-Jun-09 18:58N 41°19' W 072°04'0 0.0
2019-Jun-09 18:28N 41°19' W 072°04'0 0.0
2019-Jun-09 17:58N 41°19' W 072°04'0 0.0
2019-Jun-09 17:28N 41°19' W 072°04'0 0.0
2019-Jun-09 16:58N 41°19' W 072°04'0 0.0
2019-Jun-09 16:28N 41°19' W 072°04'0 0.0
2019-Jun-09 15:58N 41°19' W 072°04'0 0.0
2019-Jun-09 15:28N 41°19' W 072°04'0 0.0
2019-Jun-09 14:58N 41°19' W 072°04'0 0.0
2019-Jun-09 14:28N 41°19' W 072°04'0 0.0
2019-Jun-09 13:58N 41°19' W 072°04'0 0.0
2019-Jun-09 13:28N 41°19' W 072°04'0 0.0
2019-Jun-09 12:58N 41°19' W 072°04'0 0.0
2019-Jun-09 12:28N 41°19' W 072°04'0 0.0
2019-Jun-09 11:58N 41°19' W 072°04'0 0.0
2019-Jun-09 11:28N 41°19' W 072°04'0 0.0
2019-Jun-09 10:58N 41°19' W 072°04'0 0.0
2019-Jun-09 10:28N 41°19' W 072°04'0 0.0
2019-Jun-09 09:58N 41°19' W 072°04'0 0.0
2019-Jun-09 09:28N 41°19' W 072°04'0 0.0
2019-Jun-09 08:58N 41°19' W 072°04'0 0.0
2019-Jun-09 08:28N 41°19' W 072°04'0 0.0
2019-Jun-09 07:58N 41°19' W 072°04'0 0.0
2019-Jun-09 07:28N 41°19' W 072°04'0 0.0
2019-Jun-09 06:58N 41°19' W 072°04'0 0.0
2019-Jun-09 06:28N 41°19' W 072°04'0 0.0
2019-Jun-09 05:58N 41°19' W 072°04'0 0.0
2019-Jun-09 05:28N 41°19' W 072°04'0 0.0
2019-Jun-09 04:58N 41°19' W 072°04'0 0.0
2019-Jun-09 03:58N 41°19' W 072°04'0 0.0
2019-Jun-09 03:28N 41°19' W 072°04'0 0.0
2019-Jun-09 02:58N 41°19' W 072°04'0 0.0
2019-Jun-09 02:28N 41°19' W 072°04'0 0.0
2019-Jun-09 01:58N 41°19' W 072°04'0 0.0
2019-Jun-09 01:28N 41°19' W 072°04'0 0.0
2019-Jun-09 00:58N 41°19' W 072°04'0 0.0
2019-Jun-09 00:28N 41°19' W 072°04'0 0.0
2019-Jun-08 23:58N 41°19' W 072°04'0 0.0
2019-Jun-08 23:28N 41°19' W 072°04'0 0.0
2019-Jun-08 22:58N 41°19' W 072°04'0 0.0
2019-Jun-08 22:28N 41°19' W 072°04'0 0.0
2019-Jun-08 21:58N 41°19' W 072°04'0 0.0
2019-Jun-08 21:28N 41°19' W 072°04'0 0.0
2019-Jun-08 20:58N 41°19' W 072°04'0 0.0
2019-Jun-08 20:28N 41°19' W 072°04'0 0.0
2019-Jun-08 19:58N 41°19' W 072°04'0 0.0
2019-Jun-08 19:28N 41°19' W 072°04'0 0.0
2019-Jun-08 18:58N 41°19' W 072°04'0 0.0
2019-Jun-08 18:28N 41°19' W 072°04'0 0.0
2019-Jun-08 17:58N 41°19' W 072°04'0 0.0
2019-Jun-08 17:28N 41°19' W 072°04'0 0.0
2019-Jun-08 16:58N 41°19' W 072°04'0 0.0
2019-Jun-08 16:28N 41°19' W 072°04'0 0.0
2019-Jun-08 15:58N 41°19' W 072°04'0 0.0
2019-Jun-08 15:28N 41°19' W 072°04'0 0.0
2019-Jun-08 14:58N 41°19' W 072°04'0 0.0
2019-Jun-08 14:28N 41°19' W 072°04'0 0.0
2019-Jun-08 13:58N 41°19' W 072°04'0 0.0
2019-Jun-08 13:28N 41°19' W 072°04'0 0.0
2019-Jun-08 12:58N 41°19' W 072°04'0 0.0
2019-Jun-08 12:28N 41°19' W 072°04'0 0.0
2019-Jun-08 11:58N 41°19' W 072°04'0 0.0
2019-Jun-08 11:28N 41°19' W 072°04'0 0.0
2019-Jun-08 10:58N 41°19' W 072°04'0 0.0
2019-Jun-08 10:28N 41°19' W 072°04'0 0.0
2019-Jun-08 09:58N 41°19' W 072°04'0 0.0
2019-Jun-08 09:28N 41°19' W 072°04'0 0.0
2019-Jun-08 08:58N 41°19' W 072°04'0 0.0
2019-Jun-08 08:28N 41°19' W 072°04'0 0.0
2019-Jun-08 07:58N 41°19' W 072°04'0 0.0
2019-Jun-08 07:28N 41°19' W 072°04'0 0.0
2019-Jun-08 06:58N 41°19' W 072°04'0 0.0
2019-Jun-08 06:28N 41°19' W 072°04'0 0.0
2019-Jun-08 05:58N 41°19' W 072°04'0 0.0
2019-Jun-08 05:28N 41°19' W 072°04'0 0.0
2019-Jun-08 04:58N 41°19' W 072°04'0 0.0
2019-Jun-08 04:28N 41°19' W 072°04'0 0.0
2019-Jun-08 03:58N 41°19' W 072°04'0 0.0
2019-Jun-08 03:28N 41°19' W 072°04'0 0.0
2019-Jun-08 02:58N 41°19' W 072°04'0 0.0
2019-Jun-08 02:28N 41°19' W 072°04'0 0.0
2019-Jun-08 01:58N 41°19' W 072°04'0 0.0
2019-Jun-08 01:28N 41°19' W 072°04'0 0.0
2019-Jun-08 00:58N 41°19' W 072°04'0 0.0
2019-Jun-08 00:28N 41°19' W 072°04'0 0.0
2019-Jun-07 23:58N 41°19' W 072°04'0 0.0
2019-Jun-07 23:28N 41°19' W 072°04'0 0.0
2019-Jun-07 22:58N 41°19' W 072°04'0 0.0
2019-Jun-07 22:28N 41°19' W 072°04'0 0.0
2019-Jun-07 21:58N 41°19' W 072°04'0 0.0
2019-Jun-07 21:28N 41°19' W 072°04'0 0.0
2019-Jun-07 20:58N 41°19' W 072°04'0 0.0
2019-Jun-07 20:28N 41°19' W 072°04'0 0.0
2019-Jun-07 19:58N 41°19' W 072°04'0 0.0
2019-Jun-07 19:28N 41°19' W 072°04'0 0.0
2019-Jun-07 18:58N 41°19' W 072°04'0 0.0
2019-Jun-07 18:28N 41°19' W 072°04'0 0.0
2019-Jun-07 17:58N 41°19' W 072°04'0 0.0
2019-Jun-07 17:28N 41°19' W 072°04'0 0.0
2019-Jun-07 16:58N 41°19' W 072°04'0 0.0
2019-Jun-07 16:28N 41°19' W 072°04'0 0.0
2019-Jun-07 15:58N 41°19' W 072°04'0 0.0
2019-Jun-07 15:28N 41°19' W 072°04'0 0.0
2019-Jun-07 14:58N 41°19' W 072°04'0 0.0
2019-Jun-07 14:28N 41°19' W 072°04'0 0.0
2019-Jun-07 13:58N 41°19' W 072°04'0 0.0
2019-Jun-07 13:25N 41°19' W 072°04'0 0.0
2019-Jun-07 12:58N 41°19' W 072°04'0 0.0
2019-Jun-07 12:28N 41°19' W 072°04'0 0.0
2019-Jun-07 11:58N 41°19' W 072°04'0 0.0
2019-Jun-07 11:28N 41°19' W 072°04'0 0.0
2019-Jun-07 10:58N 41°19' W 072°04'0 0.0
2019-Jun-07 10:28N 41°19' W 072°04'0 0.0
2019-Jun-07 09:58N 41°19' W 072°04'0 1.0
2019-Jun-07 09:30N 41°19' W 072°04'4 7.9
2019-Jun-07 09:01N 41°18' W 071°59'3 6.9
2019-Jun-07 08:30N 41°18' W 071°54'4 7.4
2019-Jun-07 08:00N 41°18' W 071°49'223 7.6
2019-Jun-06 02:31N 44°02' W 068°23'3 9.0
2019-Jun-06 02:11N 44°04' W 068°20'2 9.2
2019-Jun-06 02:00N 44°04' W 068°18'4 8.9
2019-Jun-06 01:30N 44°07' W 068°13'4 8.8
2019-Jun-06 01:00N 44°10' W 068°08'1 2.2
2019-Jun-06 00:30N 44°09' W 068°08'2 3.5
2019-Jun-06 00:00N 44°07' W 068°08'2 3.3
2019-Jun-05 23:30N 44°06' W 068°06'0 0.2
2019-Jun-05 23:00N 44°06' W 068°06'0 0.3
2019-Jun-05 22:30N 44°06' W 068°06'1 2.2
2019-Jun-05 22:01N 44°06' W 068°08'0 0.7
2019-Jun-05 21:30N 44°06' W 068°07'0 0.6
2019-Jun-05 21:00N 44°06' W 068°07'0 0.8
2019-Jun-05 20:30N 44°06' W 068°06'1 1.1
2019-Jun-05 20:01N 44°07' W 068°07'0 0.8
2019-Jun-05 19:29N 44°06' W 068°07'0 0.5
2019-Jun-05 19:00N 44°06' W 068°07'0 0.5
2019-Jun-05 18:29N 44°06' W 068°07'0 0.6
2019-Jun-05 18:00N 44°06' W 068°07'5 9.1
2019-Jun-05 17:30N 44°11' W 068°08'3 5.6
2019-Jun-05 17:01N 44°14' W 068°09'2 3.0
2019-Jun-05 16:31N 44°12' W 068°08'3 6.5
2019-Jun-05 16:00N 44°09' W 068°06'3 4.5
2019-Jun-05 15:26N 44°07' W 068°06'0 0.3
2019-Jun-05 14:44N 44°07' W 068°06'0 0.4
2019-Jun-05 14:00N 44°06' W 068°06'0 0.5
2019-Jun-05 13:22N 44°06' W 068°06'0 0.4
2019-Jun-05 13:00N 44°06' W 068°07'0 0.1
2019-Jun-05 12:21N 44°06' W 068°07'0 0.1
2019-Jun-05 11:57N 44°06' W 068°07'0 0.6
2019-Jun-05 11:30N 44°06' W 068°07'0 0.4
2019-Jun-05 10:59N 44°06' W 068°07'0 0.6
2019-Jun-05 10:30N 44°06' W 068°07'0 0.4
2019-Jun-05 09:42N 44°06' W 068°07'0 0.2
2019-Jun-05 09:29N 44°06' W 068°07'3 3.9
2019-Jun-05 08:38N 44°04' W 068°11'13 4.8
2019-Jun-05 05:59N 43°58' W 068°26'  
Track history (hours):
 
Tides and Currents Weather Stations Pressure Air Temp Water Temp Dewpoint Dewpoint Depression Visibility Wind Speed Wind Dir Waves Ship Positions

Oceanographic research ship Connecticut (USA)

Detailed information on ship capabilities available from University of Delaware's Ocean Information Center.

Owner: CONNECTICUT, STATE OF, GROTON, CT. More information available from US FCC via Universal Licensing System and Coast Guard Vessel Documentation Center.

Last reported at 2019-Jun-15 05:11 UTC. Time now 2019-Jun-16 15:23 UTC.
Position N 44°18' W 067°58'.

Length 27 m; draft 3 m.

Type: Other ship. MMSI: 367359940.

Date/timePositionNaut miles runAvg speedWind from/ knotsBaromVisibWave heightAir tempDewpointWater temp
2019-Jun-15 05:11N 44°18' W 067°58'1 7.0
2019-Jun-15 05:00N 44°18' W 067°60'4 7.0
2019-Jun-15 04:30N 44°17' W 068°05'4 7.1
2019-Jun-15 04:01N 44°17' W 068°10'3 6.9
2019-Jun-15 03:31N 44°17' W 068°14'3 5.2
2019-Jun-15 03:01N 44°16' W 068°18'1 1.7
2019-Jun-15 02:31N 44°16' W 068°19'0 0.7
2019-Jun-15 02:01N 44°16' W 068°19'3 6.9
2019-Jun-15 01:31N 44°17' W 068°14'4 8.9
2019-Jun-15 01:01N 44°17' W 068°08'5 9.1
2019-Jun-15 00:31N 44°18' W 068°02'5 9.0
2019-Jun-14 23:55N 44°19' W 067°54'4 0.1
2019-Jun-13 04:38N 44°17' W 067°50'4 6.4
2019-Jun-13 04:05N 44°15' W 067°54'0 6.5
2019-Jun-13 04:01N 44°14' W 067°54'4 6.5
2019-Jun-13 03:28N 44°12' W 067°58'3 6.5
2019-Jun-13 03:00N 44°11' W 068°02'3 6.1
2019-Jun-13 02:31N 44°09' W 068°05'3 6.0
2019-Jun-13 02:01N 44°07' W 068°09'0 0.2
2019-Jun-13 01:31N 44°07' W 068°09'0 0.5
2019-Jun-13 01:01N 44°07' W 068°09'0 0.1
2019-Jun-13 00:31N 44°07' W 068°09'0 0.0
2019-Jun-13 00:01N 44°07' W 068°09'0 0.0
2019-Jun-12 23:30N 44°07' W 068°09'0 0.0
2019-Jun-12 23:01N 44°07' W 068°09'0 0.0
2019-Jun-12 22:31N 44°07' W 068°09'4 5.4
2019-Jun-12 21:48N 44°04' W 068°12'4 9.1
2019-Jun-12 21:23N 44°01' W 068°15'4 9.0
2019-Jun-12 20:56N 43°58' W 068°19'222 6.7
2019-Jun-11 11:34N 41°18' W 071°48'1 9.2
2019-Jun-11 11:25N 41°18' W 071°50'4 9.8
2019-Jun-11 11:00N 41°18' W 071°56'5 9.3
2019-Jun-11 10:30N 41°18' W 072°02'2 0.1
2019-Jun-10 12:34N 41°19' W 072°04'0 0.1
2019-Jun-10 12:28N 41°19' W 072°04'0 0.0
2019-Jun-10 11:58N 41°19' W 072°04'0 0.0
2019-Jun-10 11:28N 41°19' W 072°04'0 0.0
2019-Jun-10 10:58N 41°19' W 072°04'0 0.0
2019-Jun-10 10:28N 41°19' W 072°04'0 0.0
2019-Jun-10 09:58N 41°19' W 072°04'0 0.0
2019-Jun-10 09:28N 41°19' W 072°04'0 0.0
2019-Jun-10 08:58N 41°19' W 072°04'0 0.0
2019-Jun-10 08:28N 41°19' W 072°04'0 0.0
2019-Jun-10 07:58N 41°19' W 072°04'0 0.0
2019-Jun-10 07:28N 41°19' W 072°04'0 0.0
2019-Jun-10 06:58N 41°19' W 072°04'0 0.0
2019-Jun-10 06:28N 41°19' W 072°04'0 0.0
2019-Jun-10 05:58N 41°19' W 072°04'0 0.0
2019-Jun-10 05:28N 41°19' W 072°04'0 0.0
2019-Jun-10 04:58N 41°19' W 072°04'0 0.0
2019-Jun-10 04:28N 41°19' W 072°04'0 0.0
2019-Jun-10 03:58N 41°19' W 072°04'0 0.0
2019-Jun-10 03:28N 41°19' W 072°04'0 0.0
2019-Jun-10 02:58N 41°19' W 072°04'0 0.0
2019-Jun-10 02:28N 41°19' W 072°04'0 0.0
2019-Jun-10 01:58N 41°19' W 072°04'0 0.0
2019-Jun-10 01:28N 41°19' W 072°04'0 0.0
2019-Jun-10 00:58N 41°19' W 072°04'0 0.0
2019-Jun-10 00:28N 41°19' W 072°04'0 0.0
2019-Jun-09 23:58N 41°19' W 072°04'0 0.0
2019-Jun-09 23:28N 41°19' W 072°04'0 0.0
2019-Jun-09 22:58N 41°19' W 072°04'0 0.0
2019-Jun-09 22:28N 41°19' W 072°04'0 0.0
2019-Jun-09 21:58N 41°19' W 072°04'0 0.0
2019-Jun-09 21:28N 41°19' W 072°04'0 0.0
2019-Jun-09 20:58N 41°19' W 072°04'0 0.0
2019-Jun-09 20:28N 41°19' W 072°04'0 0.0
2019-Jun-09 19:58N 41°19' W 072°04'0 0.0
2019-Jun-09 19:28N 41°19' W 072°04'0 0.0
2019-Jun-09 18:58N 41°19' W 072°04'0 0.0
2019-Jun-09 18:28N 41°19' W 072°04'0 0.0
2019-Jun-09 17:58N 41°19' W 072°04'0 0.0
2019-Jun-09 17:28N 41°19' W 072°04'0 0.0
2019-Jun-09 16:58N 41°19' W 072°04'0 0.0
2019-Jun-09 16:28N 41°19' W 072°04'0 0.0
2019-Jun-09 15:58N 41°19' W 072°04'0 0.0
2019-Jun-09 15:28N 41°19' W 072°04'0 0.0
2019-Jun-09 14:58N 41°19' W 072°04'0 0.0
2019-Jun-09 14:28N 41°19' W 072°04'0 0.0
2019-Jun-09 13:58N 41°19' W 072°04'0 0.0
2019-Jun-09 13:28N 41°19' W 072°04'0 0.0
2019-Jun-09 12:58N 41°19' W 072°04'0 0.0
2019-Jun-09 12:28N 41°19' W 072°04'0 0.0
2019-Jun-09 11:58N 41°19' W 072°04'0 0.0
2019-Jun-09 11:28N 41°19' W 072°04'0 0.0
2019-Jun-09 10:58N 41°19' W 072°04'0 0.0
2019-Jun-09 10:28N 41°19' W 072°04'0 0.0
2019-Jun-09 09:58N 41°19' W 072°04'0 0.0
2019-Jun-09 09:28N 41°19' W 072°04'0 0.0
2019-Jun-09 08:58N 41°19' W 072°04'0 0.0
2019-Jun-09 08:28N 41°19' W 072°04'0 0.0
2019-Jun-09 07:58N 41°19' W 072°04'0 0.0
2019-Jun-09 07:28N 41°19' W 072°04'0 0.0
2019-Jun-09 06:58N 41°19' W 072°04'0 0.0
2019-Jun-09 06:28N 41°19' W 072°04'0 0.0
2019-Jun-09 05:58N 41°19' W 072°04'0 0.0
2019-Jun-09 05:28N 41°19' W 072°04'0 0.0
2019-Jun-09 04:58N 41°19' W 072°04'0 0.0
2019-Jun-09 03:58N 41°19' W 072°04'0 0.0
2019-Jun-09 03:28N 41°19' W 072°04'0 0.0
2019-Jun-09 02:58N 41°19' W 072°04'0 0.0
2019-Jun-09 02:28N 41°19' W 072°04'0 0.0
2019-Jun-09 01:58N 41°19' W 072°04'0 0.0
2019-Jun-09 01:28N 41°19' W 072°04'0 0.0
2019-Jun-09 00:58N 41°19' W 072°04'0 0.0
2019-Jun-09 00:28N 41°19' W 072°04'0 0.0
2019-Jun-08 23:58N 41°19' W 072°04'0 0.0
2019-Jun-08 23:28N 41°19' W 072°04'0 0.0
2019-Jun-08 22:58N 41°19' W 072°04'0 0.0
2019-Jun-08 22:28N 41°19' W 072°04'0 0.0
2019-Jun-08 21:58N 41°19' W 072°04'0 0.0
2019-Jun-08 21:28N 41°19' W 072°04'0 0.0
2019-Jun-08 20:58N 41°19' W 072°04'0 0.0
2019-Jun-08 20:28N 41°19' W 072°04'0 0.0
2019-Jun-08 19:58N 41°19' W 072°04'0 0.0
2019-Jun-08 19:28N 41°19' W 072°04'0 0.0
2019-Jun-08 18:58N 41°19' W 072°04'0 0.0
2019-Jun-08 18:28N 41°19' W 072°04'0 0.0
2019-Jun-08 17:58N 41°19' W 072°04'0 0.0
2019-Jun-08 17:28N 41°19' W 072°04'0 0.0
2019-Jun-08 16:58N 41°19' W 072°04'0 0.0
2019-Jun-08 16:28N 41°19' W 072°04'0 0.0
2019-Jun-08 15:58N 41°19' W 072°04'0 0.0
2019-Jun-08 15:28N 41°19' W 072°04'0 0.0
2019-Jun-08 14:58N 41°19' W 072°04'0 0.0
2019-Jun-08 14:28N 41°19' W 072°04'0 0.0
2019-Jun-08 13:58N 41°19' W 072°04'0 0.0
2019-Jun-08 13:28N 41°19' W 072°04'0 0.0
2019-Jun-08 12:58N 41°19' W 072°04'0 0.0
2019-Jun-08 12:28N 41°19' W 072°04'0 0.0
2019-Jun-08 11:58N 41°19' W 072°04'0 0.0
2019-Jun-08 11:28N 41°19' W 072°04'0 0.0
2019-Jun-08 10:58N 41°19' W 072°04'0 0.0
2019-Jun-08 10:28N 41°19' W 072°04'0 0.0
2019-Jun-08 09:58N 41°19' W 072°04'0 0.0
2019-Jun-08 09:28N 41°19' W 072°04'0 0.0
2019-Jun-08 08:58N 41°19' W 072°04'0 0.0
2019-Jun-08 08:28N 41°19' W 072°04'0 0.0
2019-Jun-08 07:58N 41°19' W 072°04'0 0.0
2019-Jun-08 07:28N 41°19' W 072°04'0 0.0
2019-Jun-08 06:58N 41°19' W 072°04'0 0.0
2019-Jun-08 06:28N 41°19' W 072°04'0 0.0
2019-Jun-08 05:58N 41°19' W 072°04'0 0.0
2019-Jun-08 05:28N 41°19' W 072°04'0 0.0
2019-Jun-08 04:58N 41°19' W 072°04'0 0.0
2019-Jun-08 04:28N 41°19' W 072°04'0 0.0
2019-Jun-08 03:58N 41°19' W 072°04'0 0.0
2019-Jun-08 03:28N 41°19' W 072°04'0 0.0
2019-Jun-08 02:58N 41°19' W 072°04'0 0.0
2019-Jun-08 02:28N 41°19' W 072°04'0 0.0
2019-Jun-08 01:58N 41°19' W 072°04'0 0.0
2019-Jun-08 01:28N 41°19' W 072°04'0 0.0
2019-Jun-08 00:58N 41°19' W 072°04'0 0.0
2019-Jun-08 00:28N 41°19' W 072°04'0 0.0
2019-Jun-07 23:58N 41°19' W 072°04'0 0.0
2019-Jun-07 23:28N 41°19' W 072°04'0 0.0
2019-Jun-07 22:58N 41°19' W 072°04'0 0.0
2019-Jun-07 22:28N 41°19' W 072°04'0 0.0
2019-Jun-07 21:58N 41°19' W 072°04'0 0.0
2019-Jun-07 21:28N 41°19' W 072°04'0 0.0
2019-Jun-07 20:58N 41°19' W 072°04'0 0.0
2019-Jun-07 20:28N 41°19' W 072°04'0 0.0
2019-Jun-07 19:58N 41°19' W 072°04'0 0.0
2019-Jun-07 19:28N 41°19' W 072°04'0 0.0
2019-Jun-07 18:58N 41°19' W 072°04'0 0.0
2019-Jun-07 18:28N 41°19' W 072°04'0 0.0
2019-Jun-07 17:58N 41°19' W 072°04'0 0.0
2019-Jun-07 17:28N 41°19' W 072°04'0 0.0
2019-Jun-07 16:58N 41°19' W 072°04'0 0.0
2019-Jun-07 16:28N 41°19' W 072°04'0 0.0
2019-Jun-07 15:58N 41°19' W 072°04'0 0.0
2019-Jun-07 15:28N 41°19' W 072°04'0 0.0
2019-Jun-07 14:58N 41°19' W 072°04'0 0.0
2019-Jun-07 14:28N 41°19' W 072°04'0 0.0
2019-Jun-07 13:58N 41°19' W 072°04'0 0.0
2019-Jun-07 13:25N 41°19' W 072°04'0 0.0
2019-Jun-07 12:58N 41°19' W 072°04'0 0.0
2019-Jun-07 12:28N 41°19' W 072°04'0 0.0
2019-Jun-07 11:58N 41°19' W 072°04'0 0.0
2019-Jun-07 11:28N 41°19' W 072°04'0 0.0
2019-Jun-07 10:58N 41°19' W 072°04'0 0.0
2019-Jun-07 10:28N 41°19' W 072°04'0 0.0
2019-Jun-07 09:58N 41°19' W 072°04'0 1.0
2019-Jun-07 09:30N 41°19' W 072°04'4 7.9
2019-Jun-07 09:01N 41°18' W 071°59'3 6.9
2019-Jun-07 08:30N 41°18' W 071°54'4 7.4
2019-Jun-07 08:00N 41°18' W 071°49'223 7.6
2019-Jun-06 02:31N 44°02' W 068°23'3 9.0
2019-Jun-06 02:11N 44°04' W 068°20'2 9.2
2019-Jun-06 02:00N 44°04' W 068°18'4 8.9
2019-Jun-06 01:30N 44°07' W 068°13'4 8.8
2019-Jun-06 01:00N 44°10' W 068°08'1 2.2
2019-Jun-06 00:30N 44°09' W 068°08'2 3.5
2019-Jun-06 00:00N 44°07' W 068°08'2 3.3
2019-Jun-05 23:30N 44°06' W 068°06'0 0.2
2019-Jun-05 23:00N 44°06' W 068°06'0 0.3
2019-Jun-05 22:30N 44°06' W 068°06'1 2.2
2019-Jun-05 22:01N 44°06' W 068°08'0 0.7
2019-Jun-05 21:30N 44°06' W 068°07'0 0.6
2019-Jun-05 21:00N 44°06' W 068°07'0 0.8
2019-Jun-05 20:30N 44°06' W 068°06'1 1.1
2019-Jun-05 20:01N 44°07' W 068°07'0 0.8
2019-Jun-05 19:29N 44°06' W 068°07'0 0.5
2019-Jun-05 19:00N 44°06' W 068°07'0 0.5
2019-Jun-05 18:29N 44°06' W 068°07'0 0.6
2019-Jun-05 18:00N 44°06' W 068°07'5 9.1
2019-Jun-05 17:30N 44°11' W 068°08'3 5.6
2019-Jun-05 17:01N 44°14' W 068°09'2 3.0
2019-Jun-05 16:31N 44°12' W 068°08'3 6.5
2019-Jun-05 16:00N 44°09' W 068°06'3 4.5
2019-Jun-05 15:26N 44°07' W 068°06'0 0.3
2019-Jun-05 14:44N 44°07' W 068°06'0 0.4
2019-Jun-05 14:00N 44°06' W 068°06'0 0.5
2019-Jun-05 13:22N 44°06' W 068°06'0 0.4
2019-Jun-05 13:00N 44°06' W 068°07'0 0.1
2019-Jun-05 12:21N 44°06' W 068°07'0 0.1
2019-Jun-05 11:57N 44°06' W 068°07'0 0.6
2019-Jun-05 11:30N 44°06' W 068°07'0 0.4
2019-Jun-05 10:59N 44°06' W 068°07'0 0.6
2019-Jun-05 10:30N 44°06' W 068°07'0 0.4
2019-Jun-05 09:42N 44°06' W 068°07'0 0.2
2019-Jun-05 09:29N 44°06' W 068°07'3 3.9
2019-Jun-05 08:38N 44°04' W 068°11'13 4.8
2019-Jun-05 05:59N 43°58' W 068°26'  

Dump ship's entire track history